sensor_id;sensor_type;location;lat;lon;timestamp;pressure;altitude;pressure_sealevel;temperature;humidity
74169;BME280;62523;53.336;83.690;2022-10-17T00:04:41;99029.75;;;9.68;59.41
74169;BME280;62523;53.336;83.690;2022-10-17T00:09:43;99021.09;;;9.66;57.72
74169;BME280;62523;53.336;83.690;2022-10-17T00:14:44;99009.16;;;9.60;57.70
74169;BME280;62523;53.336;83.690;2022-10-17T00:19:46;99016.63;;;9.52;57.31
74169;BME280;62523;53.336;83.690;2022-10-17T00:24:47;99020.84;;;9.55;57.63
74169;BME280;62523;53.336;83.690;2022-10-17T00:29:49;99016.88;;;9.48;58.32
74169;BME280;62523;53.336;83.690;2022-10-17T00:34:50;99017.72;;;9.48;58.69
74169;BME280;62523;53.336;83.690;2022-10-17T00:39:52;99012.63;;;9.61;58.11
74169;BME280;62523;53.336;83.690;2022-10-17T00:45:29;99000.69;;;9.55;58.60
74169;BME280;62523;53.336;83.690;2022-10-17T00:50:31;98993.78;;;9.53;60.11
74169;BME280;62523;53.336;83.690;2022-10-17T00:55:38;98990.59;;;9.48;61.93
74169;BME280;62523;53.336;83.690;2022-10-17T01:00:42;98989.97;;;9.58;63.11
74169;BME280;62523;53.336;83.690;2022-10-17T01:05:45;98986.72;;;9.69;64.93
74169;BME280;62523;53.336;83.690;2022-10-17T01:11:09;98978.97;;;9.82;66.27
74169;BME280;62523;53.336;83.690;2022-10-17T01:21:56;98969.13;;;10.00;67.55
74169;BME280;62523;53.336;83.690;2022-10-17T01:32:48;98971.13;;;9.96;70.62
74169;BME280;62523;53.336;83.690;2022-10-17T01:48:24;98934.88;;;10.30;71.12
74169;BME280;62523;53.336;83.690;2022-10-17T01:53:32;98940.59;;;10.22;72.17
74169;BME280;62523;53.336;83.690;2022-10-17T01:58:44;98948.34;;;10.40;71.88
74169;BME280;62523;53.336;83.690;2022-10-17T02:03:49;98938.28;;;10.47;71.75
74169;BME280;62523;53.336;83.690;2022-10-17T02:08:51;98944.59;;;10.44;72.03
74169;BME280;62523;53.336;83.690;2022-10-17T02:14:12;98939.13;;;10.47;72.33
74169;BME280;62523;53.336;83.690;2022-10-17T02:30:07;98936.56;;;10.74;74.51
74169;BME280;62523;53.336;83.690;2022-10-17T02:35:12;98935.72;;;10.74;75.79
74169;BME280;62523;53.336;83.690;2022-10-17T02:40:17;98934.59;;;10.78;76.08
74169;BME280;62523;53.336;83.690;2022-10-17T02:45:22;98924.03;;;10.78;76.44
74169;BME280;62523;53.336;83.690;2022-10-17T02:50:35;98935.66;;;10.88;76.77
74169;BME280;62523;53.336;83.690;2022-10-17T02:55:45;98939.50;;;10.97;76.18
74169;BME280;62523;53.336;83.690;2022-10-17T03:00:49;98943.16;;;11.09;76.05
74169;BME280;62523;53.336;83.690;2022-10-17T03:05:51;98931.25;;;11.16;76.36
74169;BME280;62523;53.336;83.690;2022-10-17T03:10:53;98927.88;;;11.14;76.34
74169;BME280;62523;53.336;83.690;2022-10-17T03:15:57;98937.31;;;11.31;76.03
74169;BME280;62523;53.336;83.690;2022-10-17T03:20:58;98945.25;;;11.31;76.61
74169;BME280;62523;53.336;83.690;2022-10-17T03:26:04;98945.34;;;11.02;78.38
74169;BME280;62523;53.336;83.690;2022-10-17T03:31:11;98936.53;;;10.89;80.15
74169;BME280;62523;53.336;83.690;2022-10-17T03:36:15;98936.63;;;10.87;81.31
74169;BME280;62523;53.336;83.690;2022-10-17T03:41:17;98935.25;;;10.67;83.91
74169;BME280;62523;53.336;83.690;2022-10-17T03:46:18;98914.84;;;10.56;85.16
74169;BME280;62523;53.336;83.690;2022-10-17T03:51:19;98925.84;;;10.34;88.66
74169;BME280;62523;53.336;83.690;2022-10-17T03:56:23;98925.19;;;10.45;87.91
74169;BME280;62523;53.336;83.690;2022-10-17T04:01:24;98922.00;;;10.54;88.07
74169;BME280;62523;53.336;83.690;2022-10-17T04:06:25;98936.19;;;10.66;87.31
74169;BME280;62523;53.336;83.690;2022-10-17T04:11:26;98921.41;;;10.63;86.80
74169;BME280;62523;53.336;83.690;2022-10-17T04:16:28;98934.28;;;10.82;86.41
74169;BME280;62523;53.336;83.690;2022-10-17T04:21:29;98933.25;;;10.85;85.60
74169;BME280;62523;53.336;83.690;2022-10-17T04:26:30;98932.94;;;10.90;85.35
74169;BME280;62523;53.336;83.690;2022-10-17T04:31:32;98928.22;;;10.95;85.67
74169;BME280;62523;53.336;83.690;2022-10-17T04:36:33;98932.28;;;10.86;85.47
74169;BME280;62523;53.336;83.690;2022-10-17T04:41:36;98934.59;;;11.05;84.50
74169;BME280;62523;53.336;83.690;2022-10-17T04:46:38;98930.25;;;11.31;83.41
74169;BME280;62523;53.336;83.690;2022-10-17T04:51:39;98927.53;;;11.33;83.27
74169;BME280;62523;53.336;83.690;2022-10-17T04:56:41;98922.59;;;11.41;81.65
74169;BME280;62523;53.336;83.690;2022-10-17T05:01:42;98919.53;;;11.34;80.73
74169;BME280;62523;53.336;83.690;2022-10-17T05:06:43;98919.91;;;11.28;78.35
74169;BME280;62523;53.336;83.690;2022-10-17T05:11:44;98934.13;;;11.53;77.30
74169;BME280;62523;53.336;83.690;2022-10-17T05:16:45;98925.63;;;11.75;74.96
74169;BME280;62523;53.336;83.690;2022-10-17T05:21:47;98945.00;;;11.88;73.69
74169;BME280;62523;53.336;83.690;2022-10-17T05:26:51;98947.50;;;11.77;72.43
74169;BME280;62523;53.336;83.690;2022-10-17T05:31:52;98955.06;;;11.68;67.02
74169;BME280;62523;53.336;83.690;2022-10-17T05:36:54;98957.59;;;11.57;60.31
74169;BME280;62523;53.336;83.690;2022-10-17T05:41:55;98972.50;;;11.44;58.88
74169;BME280;62523;53.336;83.690;2022-10-17T05:46:56;98973.66;;;11.13;60.06
74169;BME280;62523;53.336;83.690;2022-10-17T05:51:57;98982.56;;;10.83;61.12
74169;BME280;62523;53.336;83.690;2022-10-17T05:56:58;98998.38;;;10.54;62.18
74169;BME280;62523;53.336;83.690;2022-10-17T06:02:00;98987.19;;;9.92;70.06
74169;BME280;62523;53.336;83.690;2022-10-17T06:07:01;98987.69;;;9.52;73.49
74169;BME280;62523;53.336;83.690;2022-10-17T06:12:03;99010.75;;;9.63;73.99
74169;BME280;62523;53.336;83.690;2022-10-17T06:17:04;99032.19;;;9.71;73.22
74169;BME280;62523;53.336;83.690;2022-10-17T06:22:05;99040.72;;;9.45;72.19
74169;BME280;62523;53.336;83.690;2022-10-17T06:27:07;99049.28;;;9.32;72.29
74169;BME280;62523;53.336;83.690;2022-10-17T06:32:08;99031.22;;;9.26;72.33
74169;BME280;62523;53.336;83.690;2022-10-17T06:37:09;99042.91;;;9.20;72.86
74169;BME280;62523;53.336;83.690;2022-10-17T06:42:11;99046.09;;;9.27;71.85
74169;BME280;62523;53.336;83.690;2022-10-17T06:47:12;99054.19;;;9.54;71.14
74169;BME280;62523;53.336;83.690;2022-10-17T06:52:13;99063.75;;;9.71;70.11
74169;BME280;62523;53.336;83.690;2022-10-17T06:57:17;99077.69;;;9.73;70.98
74169;BME280;62523;53.336;83.690;2022-10-17T07:02:18;99083.63;;;9.77;69.00
74169;BME280;62523;53.336;83.690;2022-10-17T07:07:20;99088.34;;;9.86;70.07
74169;BME280;62523;53.336;83.690;2022-10-17T07:12:21;99092.88;;;10.14;69.11
74169;BME280;62523;53.336;83.690;2022-10-17T07:17:24;99085.66;;;10.18;70.09
74169;BME280;62523;53.336;83.690;2022-10-17T07:22:25;99096.72;;;10.39;68.89
74169;BME280;62523;53.336;83.690;2022-10-17T07:27:26;99091.13;;;10.59;69.51
74169;BME280;62523;53.336;83.690;2022-10-17T07:32:27;99096.63;;;10.40;69.58
74169;BME280;62523;53.336;83.690;2022-10-17T07:37:29;99103.75;;;10.83;68.63
74169;BME280;62523;53.336;83.690;2022-10-17T07:42:30;99089.94;;;10.94;68.58
74169;BME280;62523;53.336;83.690;2022-10-17T07:47:32;99085.88;;;11.17;68.14
74169;BME280;62523;53.336;83.690;2022-10-17T07:52:35;99105.81;;;11.35;66.79
74169;BME280;62523;53.336;83.690;2022-10-17T07:57:36;99103.63;;;11.42;65.66
74169;BME280;62523;53.336;83.690;2022-10-17T08:02:40;99086.59;;;11.75;64.70
74169;BME280;62523;53.336;83.690;2022-10-17T08:07:41;99106.16;;;11.58;63.05
74169;BME280;62523;53.336;83.690;2022-10-17T08:12:43;99116.25;;;11.51;61.70
74169;BME280;62523;53.336;83.690;2022-10-17T08:17:44;99130.88;;;11.28;61.70
74169;BME280;62523;53.336;83.690;2022-10-17T08:22:54;99122.28;;;11.24;62.26
74169;BME280;62523;53.336;83.690;2022-10-17T08:27:56;99138.22;;;11.23;62.91
74169;BME280;62523;53.336;83.690;2022-10-17T08:32:57;99135.09;;;11.16;62.96
74169;BME280;62523;53.336;83.690;2022-10-17T08:37:59;99147.94;;;11.08;63.41
74169;BME280;62523;53.336;83.690;2022-10-17T08:48:19;99143.94;;;11.01;63.20
74169;BME280;62523;53.336;83.690;2022-10-17T08:53:39;99164.47;;;10.96;62.04
74169;BME280;62523;53.336;83.690;2022-10-17T08:58:42;99161.44;;;10.88;62.41
74169;BME280;62523;53.336;83.690;2022-10-17T09:19:05;99201.19;;;10.99;56.33
74169;BME280;62523;53.336;83.690;2022-10-17T09:24:16;99204.78;;;10.98;54.99
74169;BME280;62523;53.336;83.690;2022-10-17T09:29:22;99221.69;;;10.94;53.61
74169;BME280;62523;53.336;83.690;2022-10-17T09:34:26;99227.28;;;11.18;52.32
74169;BME280;62523;53.336;83.690;2022-10-17T09:39:28;99226.69;;;10.98;52.20
74169;BME280;62523;53.336;83.690;2022-10-17T09:44:35;99236.34;;;10.83;52.98
74169;BME280;62523;53.336;83.690;2022-10-17T09:49:43;99234.81;;;10.65;54.23
74169;BME280;62523;53.336;83.690;2022-10-17T09:54:53;99248.97;;;10.62;54.78
74169;BME280;62523;53.336;83.690;2022-10-17T09:59:58;99258.09;;;10.57;55.79
74169;BME280;62523;53.336;83.690;2022-10-17T10:05:19;99253.44;;;10.46;56.15
74169;BME280;62523;53.336;83.690;2022-10-17T10:10:24;99263.22;;;10.44;56.50
74169;BME280;62523;53.336;83.690;2022-10-17T10:15:35;99260.59;;;10.44;57.20
74169;BME280;62523;53.336;83.690;2022-10-17T10:20:37;99281.16;;;10.37;57.45
74169;BME280;62523;53.336;83.690;2022-10-17T10:25:50;99283.84;;;10.36;55.51
74169;BME280;62523;53.336;83.690;2022-10-17T10:30:53;99279.00;;;10.12;56.10
74169;BME280;62523;53.336;83.690;2022-10-17T10:36:01;99296.72;;;10.09;55.63
74169;BME280;62523;53.336;83.690;2022-10-17T10:41:05;99301.16;;;10.08;56.57
74169;BME280;62523;53.336;83.690;2022-10-17T10:46:21;99299.78;;;10.01;58.09
74169;BME280;62523;53.336;83.690;2022-10-17T10:51:39;99289.41;;;9.82;58.86
74169;BME280;62523;53.336;83.690;2022-10-17T10:56:45;99307.66;;;9.85;60.18
74169;BME280;62523;53.336;83.690;2022-10-17T11:02:20;99325.31;;;9.83;60.50
74169;BME280;62523;53.336;83.690;2022-10-17T11:07:34;99335.47;;;9.73;59.90
74169;BME280;62523;53.336;83.690;2022-10-17T11:12:43;99331.72;;;9.61;58.80
74169;BME280;62523;53.336;83.690;2022-10-17T11:18:11;99330.47;;;9.51;56.32
74169;BME280;62523;53.336;83.690;2022-10-17T11:23:23;99349.28;;;9.43;54.47
74169;BME280;62523;53.336;83.690;2022-10-17T11:28:30;99338.75;;;9.26;54.97
74169;BME280;62523;53.336;83.690;2022-10-17T11:33:56;99345.88;;;9.24;55.46
74169;BME280;62523;53.336;83.690;2022-10-17T11:39:02;99361.66;;;9.24;56.26
74169;BME280;62523;53.336;83.690;2022-10-17T11:49:31;99374.28;;;8.98;57.58
74169;BME280;62523;53.336;83.690;2022-10-17T11:54:38;99373.41;;;8.80;57.87
74169;BME280;62523;53.336;83.690;2022-10-17T12:05:27;99397.63;;;8.68;57.68
74169;BME280;62523;53.336;83.690;2022-10-17T12:15:39;99403.41;;;8.57;57.85
74169;BME280;62523;53.336;83.690;2022-10-17T12:20:41;99402.69;;;8.54;58.18
74169;BME280;62523;53.336;83.690;2022-10-17T12:25:59;99405.69;;;8.46;58.81
74169;BME280;62523;53.336;83.690;2022-10-17T12:31:22;99409.81;;;8.31;58.78
74169;BME280;62523;53.336;83.690;2022-10-17T12:52:19;99452.44;;;7.97;59.54
74169;BME280;62523;53.336;83.690;2022-10-17T12:57:28;99460.78;;;7.86;60.37
74169;BME280;62523;53.336;83.690;2022-10-17T13:02:31;99463.47;;;7.85;62.03
74169;BME280;62523;53.336;83.690;2022-10-17T13:07:35;99456.47;;;7.85;63.58
74169;BME280;62523;53.336;83.690;2022-10-17T13:12:37;99475.34;;;7.73;64.03
74169;BME280;62523;53.336;83.690;2022-10-17T13:17:38;99475.91;;;7.59;65.14
74169;BME280;62523;53.336;83.690;2022-10-17T13:22:43;99472.78;;;7.51;65.51
74169;BME280;62523;53.336;83.690;2022-10-17T13:27:46;99476.53;;;7.44;66.21
74169;BME280;62523;53.336;83.690;2022-10-17T13:32:47;99481.13;;;7.38;66.50
74169;BME280;62523;53.336;83.690;2022-10-17T13:37:49;99483.19;;;7.30;67.61
74169;BME280;62523;53.336;83.690;2022-10-17T13:42:55;99486.91;;;7.25;67.90
74169;BME280;62523;53.336;83.690;2022-10-17T13:48:00;99499.28;;;7.21;68.35
74169;BME280;62523;53.336;83.690;2022-10-17T13:58:15;99498.97;;;7.07;69.02
74169;BME280;62523;53.336;83.690;2022-10-17T14:03:21;99500.97;;;7.00;69.54
74169;BME280;62523;53.336;83.690;2022-10-17T14:08:23;99503.97;;;6.91;69.55
74169;BME280;62523;53.336;83.690;2022-10-17T14:13:29;99499.59;;;6.68;69.45
74169;BME280;62523;53.336;83.690;2022-10-17T14:18:35;99512.50;;;6.49;70.33
74169;BME280;62523;53.336;83.690;2022-10-17T14:23:41;99516.69;;;6.29;71.31
74169;BME280;62523;53.336;83.690;2022-10-17T14:28:45;99523.94;;;6.21;72.28
74169;BME280;62523;53.336;83.690;2022-10-17T14:33:48;99530.72;;;6.02;73.50
74169;BME280;62523;53.336;83.690;2022-10-17T14:38:51;99538.22;;;5.86;74.68
74169;BME280;62523;53.336;83.690;2022-10-17T14:49:06;99552.88;;;5.63;77.22
74169;BME280;62523;53.336;83.690;2022-10-17T14:54:26;99539.97;;;5.59;77.87
74169;BME280;62523;53.336;83.690;2022-10-17T14:59:30;99557.44;;;5.57;78.58
74169;BME280;62523;53.336;83.690;2022-10-17T15:04:31;99555.72;;;5.57;79.31
74169;BME280;62523;53.336;83.690;2022-10-17T15:09:33;99518.88;;;5.10;80.21
74169;BME280;62523;53.336;83.690;2022-10-17T15:14:34;99553.09;;;5.29;81.03
74169;BME280;62523;53.336;83.690;2022-10-17T15:19:35;99569.09;;;5.18;82.17
74169;BME280;62523;53.336;83.690;2022-10-17T15:24:36;99565.81;;;5.11;82.40
74169;BME280;62523;53.336;83.690;2022-10-17T15:29:37;99559.19;;;5.01;83.07
74169;BME280;62523;53.336;83.690;2022-10-17T15:34:39;99562.00;;;4.93;83.55
74169;BME280;62523;53.336;83.690;2022-10-17T15:39:40;99567.41;;;4.87;84.32
74169;BME280;62523;53.336;83.690;2022-10-17T15:44:41;99572.13;;;5.04;83.58
74169;BME280;62523;53.336;83.690;2022-10-17T15:49:44;99574.25;;;4.91;84.36
74169;BME280;62523;53.336;83.690;2022-10-17T15:54:45;99587.25;;;4.93;84.44
74169;BME280;62523;53.336;83.690;2022-10-17T15:59:47;99586.38;;;4.92;84.72
74169;BME280;62523;53.336;83.690;2022-10-17T16:04:50;99588.00;;;4.97;84.79
74169;BME280;62523;53.336;83.690;2022-10-17T16:09:51;99586.34;;;4.94;84.61
74169;BME280;62523;53.336;83.690;2022-10-17T16:14:53;99603.91;;;4.89;85.28
74169;BME280;62523;53.336;83.690;2022-10-17T16:19:54;99595.34;;;4.84;85.64
74169;BME280;62523;53.336;83.690;2022-10-17T16:24:55;99598.25;;;4.73;86.63
74169;BME280;62523;53.336;83.690;2022-10-17T16:29:59;99605.31;;;4.69;86.96
74169;BME280;62523;53.336;83.690;2022-10-17T16:35:00;99605.22;;;4.72;87.33
74169;BME280;62523;53.336;83.690;2022-10-17T16:40:02;99605.97;;;4.78;87.80
74169;BME280;62523;53.336;83.690;2022-10-17T16:45:06;99601.63;;;4.77;88.37
74169;BME280;62523;53.336;83.690;2022-10-17T16:50:08;99599.41;;;4.63;89.85
74169;BME280;62523;53.336;83.690;2022-10-17T16:55:11;99582.38;;;4.49;89.96
74169;BME280;62523;53.336;83.690;2022-10-17T17:00:13;99599.16;;;4.72;90.78
74169;BME280;62523;53.336;83.690;2022-10-17T17:05:14;99590.66;;;4.65;91.06
74169;BME280;62523;53.336;83.690;2022-10-17T17:10:16;99600.81;;;4.75;90.94
74169;BME280;62523;53.336;83.690;2022-10-17T17:15:17;99591.03;;;4.83;90.43
74169;BME280;62523;53.336;83.690;2022-10-17T17:20:18;99603.44;;;4.75;90.64
74169;BME280;62523;53.336;83.690;2022-10-17T17:25:21;99603.56;;;4.70;90.38
74169;BME280;62523;53.336;83.690;2022-10-17T17:30:23;99598.97;;;4.80;89.84
74169;BME280;62523;53.336;83.690;2022-10-17T17:35:26;99596.28;;;4.81;89.56
74169;BME280;62523;53.336;83.690;2022-10-17T17:40:27;99591.03;;;4.83;88.88
74169;BME280;62523;53.336;83.690;2022-10-17T17:45:28;99592.19;;;4.72;88.68
74169;BME280;62523;53.336;83.690;2022-10-17T17:50:30;99583.78;;;4.63;88.97
74169;BME280;62523;53.336;83.690;2022-10-17T17:55:33;99583.91;;;4.58;89.06
74169;BME280;62523;53.336;83.690;2022-10-17T18:00:35;99586.88;;;4.44;89.46
74169;BME280;62523;53.336;83.690;2022-10-17T18:05:38;99589.69;;;4.37;89.84
74169;BME280;62523;53.336;83.690;2022-10-17T18:10:40;99592.34;;;4.35;89.61
74169;BME280;62523;53.336;83.690;2022-10-17T18:15:42;99579.03;;;4.44;89.49
74169;BME280;62523;53.336;83.690;2022-10-17T18:20:43;99581.88;;;4.37;89.07
74169;BME280;62523;53.336;83.690;2022-10-17T18:25:55;99582.63;;;4.40;88.82
74169;BME280;62523;53.336;83.690;2022-10-17T18:30:57;99593.09;;;4.39;89.26
74169;BME280;62523;53.336;83.690;2022-10-17T18:36:05;99597.34;;;4.43;89.18
74169;BME280;62523;53.336;83.690;2022-10-17T18:41:10;99594.00;;;4.38;89.68
74169;BME280;62523;53.336;83.690;2022-10-17T18:46:19;99599.31;;;4.35;89.69
74169;BME280;62523;53.336;83.690;2022-10-17T18:51:22;99590.84;;;4.25;89.97
74169;BME280;62523;53.336;83.690;2022-10-17T18:56:24;99598.53;;;4.31;89.99
74169;BME280;62523;53.336;83.690;2022-10-17T19:01:27;99606.22;;;4.36;90.44
74169;BME280;62523;53.336;83.690;2022-10-17T19:06:30;99598.50;;;4.33;90.79
74169;BME280;62523;53.336;83.690;2022-10-17T19:11:33;99599.91;;;4.44;90.62
74169;BME280;62523;53.336;83.690;2022-10-17T19:16:36;99598.22;;;4.43;90.41
74169;BME280;62523;53.336;83.690;2022-10-17T19:21:37;99607.03;;;4.38;91.23
74169;BME280;62523;53.336;83.690;2022-10-17T19:26:39;99601.00;;;4.36;91.48
74169;BME280;62523;53.336;83.690;2022-10-17T19:31:41;99595.91;;;4.31;91.12
74169;BME280;62523;53.336;83.690;2022-10-17T19:36:43;99604.75;;;4.25;92.10
74169;BME280;62523;53.336;83.690;2022-10-17T19:41:46;99609.38;;;4.16;92.19
74169;BME280;62523;53.336;83.690;2022-10-17T19:46:47;99603.38;;;4.10;92.32
74169;BME280;62523;53.336;83.690;2022-10-17T19:51:48;99598.09;;;4.15;92.08
74169;BME280;62523;53.336;83.690;2022-10-17T19:56:50;99605.09;;;4.13;92.07
74169;BME280;62523;53.336;83.690;2022-10-17T20:01:52;99598.66;;;4.26;91.90
74169;BME280;62523;53.336;83.690;2022-10-17T20:06:54;99604.06;;;4.19;92.36
74169;BME280;62523;53.336;83.690;2022-10-17T20:11:59;99598.69;;;4.25;91.87
74169;BME280;62523;53.336;83.690;2022-10-17T20:17:00;99596.94;;;4.25;91.79
74169;BME280;62523;53.336;83.690;2022-10-17T20:22:01;99598.44;;;4.34;91.59
74169;BME280;62523;53.336;83.690;2022-10-17T20:27:03;99601.69;;;4.42;91.59
74169;BME280;62523;53.336;83.690;2022-10-17T20:32:04;99587.88;;;4.39;91.19
74169;BME280;62523;53.336;83.690;2022-10-17T20:37:05;99590.69;;;4.33;91.78
74169;BME280;62523;53.336;83.690;2022-10-17T20:42:06;99590.84;;;4.25;92.26
74169;BME280;62523;53.336;83.690;2022-10-17T20:47:08;99584.63;;;4.30;91.54
74169;BME280;62523;53.336;83.690;2022-10-17T20:52:09;99586.59;;;4.22;92.10
74169;BME280;62523;53.336;83.690;2022-10-17T20:57:10;99577.84;;;4.23;92.02
74169;BME280;62523;53.336;83.690;2022-10-17T21:02:12;99569.63;;;4.06;92.44
74169;BME280;62523;53.336;83.690;2022-10-17T21:07:14;99578.47;;;4.00;93.41
74169;BME280;62523;53.336;83.690;2022-10-17T21:12:16;99573.63;;;3.85;93.71
74169;BME280;62523;53.336;83.690;2022-10-17T21:17:17;99568.03;;;3.66;94.72
74169;BME280;62523;53.336;83.690;2022-10-17T21:22:18;99562.75;;;3.67;94.47
74169;BME280;62523;53.336;83.690;2022-10-17T21:27:19;99570.06;;;3.53;95.25
74169;BME280;62523;53.336;83.690;2022-10-17T21:32:21;99579.00;;;3.41;96.25
74169;BME280;62523;53.336;83.690;2022-10-17T21:37:22;99575.66;;;3.36;97.03
74169;BME280;62523;53.336;83.690;2022-10-17T21:42:23;99569.13;;;3.56;95.70
74169;BME280;62523;53.336;83.690;2022-10-17T21:47:25;99569.50;;;3.40;96.20
74169;BME280;62523;53.336;83.690;2022-10-17T21:52:26;99564.75;;;3.58;96.27
74169;BME280;62523;53.336;83.690;2022-10-17T21:57:27;99564.63;;;3.62;95.92
74169;BME280;62523;53.336;83.690;2022-10-17T22:02:30;99559.66;;;3.52;96.40
74169;BME280;62523;53.336;83.690;2022-10-17T22:07:31;99552.84;;;3.46;96.53
74169;BME280;62523;53.336;83.690;2022-10-17T22:12:32;99539.47;;;3.24;96.63
74169;BME280;62523;53.336;83.690;2022-10-17T22:17:33;99562.69;;;3.33;97.06
74169;BME280;62523;53.336;83.690;2022-10-17T22:22:34;99565.63;;;3.19;97.58
74169;BME280;62523;53.336;83.690;2022-10-17T22:27:35;99571.94;;;3.07;98.60
74169;BME280;62523;53.336;83.690;2022-10-17T22:32:36;99566.69;;;3.09;98.86
74169;BME280;62523;53.336;83.690;2022-10-17T22:37:38;99562.22;;;2.75;99.67
74169;BME280;62523;53.336;83.690;2022-10-17T22:42:39;99558.50;;;2.87;99.71
74169;BME280;62523;53.336;83.690;2022-10-17T22:47:40;99559.69;;;3.13;98.37
74169;BME280;62523;53.336;83.690;2022-10-17T22:52:41;99557.06;;;3.14;97.99
74169;BME280;62523;53.336;83.690;2022-10-17T22:57:43;99551.84;;;2.74;99.49
74169;BME280;62523;53.336;83.690;2022-10-17T23:02:44;99570.63;;;2.88;99.56
74169;BME280;62523;53.336;83.690;2022-10-17T23:07:45;99555.78;;;2.93;99.35
74169;BME280;62523;53.336;83.690;2022-10-17T23:12:46;99553.00;;;3.01;99.00
74169;BME280;62523;53.336;83.690;2022-10-17T23:17:47;99561.41;;;3.14;98.61
74169;BME280;62523;53.336;83.690;2022-10-17T23:22:49;99561.38;;;3.15;98.37
74169;BME280;62523;53.336;83.690;2022-10-17T23:27:50;99555.28;;;3.16;98.30
74169;BME280;62523;53.336;83.690;2022-10-17T23:32:52;99543.34;;;3.06;98.77
74169;BME280;62523;53.336;83.690;2022-10-17T23:37:53;99542.81;;;3.29;97.83
74169;BME280;62523;53.336;83.690;2022-10-17T23:42:54;99538.50;;;3.30;97.48
74169;BME280;62523;53.336;83.690;2022-10-17T23:47:56;99519.81;;;3.12;97.32
74169;BME280;62523;53.336;83.690;2022-10-17T23:52:56;99543.56;;;3.36;96.78
74169;BME280;62523;53.336;83.690;2022-10-17T23:57:58;99540.47;;;3.18;97.48
